If you wish to contribute or participate in the discussions about articles you are invited to join SKYbrary as a registered user

 Actions

Golosón International Airport

From SKYbrary Wiki

MHLC
Airport
ICAO: MHLC – IATA: LCE
Summary
Name Golosón International Airport
Region South America and Caribbean
Territory Honduras HN.gif
Location La Ceiba, Atlantida Department
Serving La Ceiba
Elevation 11.887 m
39 ft11.887 m
Coordinates 15° 44' 33.89" N, 86° 51' 6.64" W
Runways
Designator Length Width Surface ROPS
7/25 3010 m9,875.328 ft
45 m147.638 ft
ASP yes/yes


METAR
Observation MHLC 181600Z 33005KT 9999 FEW026 SCT200 33/24 Q1012 A2989 NOSIG
Station La Ceiba Airport
Date/Time 18 June 2019 16:00:00
Wind direction 330°
Wind speed 05 kts
Lowest cloud amount few clouds
Temperature 33°C
Dew point 24°C
Humidity 59%
QNH 1012 hPa
Weather condition n/a

WX
Tag(s) Tropical Revolving Storm

Golosón International Airport (Spanish: Aeropuerto Internacional Golosón) is an airport located on the western side of the city of La Ceiba, in the Atlántida Department on the north coast of Honduras. It is also known as La Ceiba Airport and Hector C. Moncada Air Base.

Climatology

Tropical Savanna climate (Köppen climate classification Aw)

Maps

Terrain

Loading map...

Airport Layout

Loading map...


Accidents & Serious Incidents at or in vicinity of MHLC

None on SKYbrary